createdAt,value
2022-11-16T00:00:18.479Z,1.04
2022-11-16T00:01:18.049Z,1.04
2022-11-16T00:02:18.272Z,1.04
2022-11-16T00:03:18.361Z,1.04
2022-11-16T00:04:18.510Z,1.04
2022-11-16T00:05:18.604Z,1.04
2022-11-16T00:06:18.719Z,1.04
2022-11-16T00:07:18.950Z,1.04
2022-11-16T00:08:19.032Z,1.04
2022-11-16T00:09:19.183Z,1.04
2022-11-16T00:10:19.315Z,1.04
2022-11-16T00:11:19.468Z,1.04
2022-11-16T00:12:19.629Z,1.04
2022-11-16T00:13:19.740Z,1.04
2022-11-16T00:14:19.895Z,1.04
2022-11-16T00:15:20.550Z,1.04
2022-11-16T00:16:20.174Z,1.04
2022-11-16T00:17:20.275Z,1.04
2022-11-16T00:18:20.430Z,1.04
2022-11-16T00:19:20.595Z,1.04
2022-11-16T00:20:20.740Z,1.04
2022-11-16T00:21:20.888Z,1.04
2022-11-16T00:22:21.043Z,1.04
2022-11-16T00:23:21.195Z,1.04
2022-11-16T00:24:21.350Z,1.04
2022-11-16T00:25:21.476Z,1.04
2022-11-16T00:26:21.586Z,1.04
2022-11-16T00:27:21.756Z,1.04
2022-11-16T00:28:21.853Z,1.04
2022-11-16T00:29:22.002Z,1.04
2022-11-16T00:30:22.808Z,1.04
2022-11-16T00:31:22.292Z,1.04
2022-11-16T00:32:22.412Z,1.04
2022-11-16T00:33:22.552Z,1.04
2022-11-16T00:34:22.674Z,1.04
2022-11-16T00:35:22.810Z,1.04
2022-11-16T00:36:22.967Z,1.04
2022-11-16T00:37:23.114Z,1.04
2022-11-16T00:38:23.252Z,1.04
2022-11-16T00:39:23.358Z,1.04
2022-11-16T00:40:23.526Z,1.04
2022-11-16T00:41:23.699Z,1.04
2022-11-16T00:42:23.851Z,1.04
2022-11-16T00:43:23.985Z,1.04
2022-11-16T00:44:24.072Z,1.04
2022-11-16T00:45:24.900Z,1.04
2022-11-16T00:46:24.371Z,1.04
2022-11-16T00:47:24.547Z,1.04
2022-11-16T00:48:24.688Z,1.04
2022-11-16T00:49:24.828Z,1.04
2022-11-16T00:50:24.991Z,1.04
2022-11-16T00:51:25.141Z,1.04
2022-11-16T00:52:25.286Z,1.04
2022-11-16T00:53:25.430Z,1.04
2022-11-16T00:54:25.582Z,1.04
2022-11-16T00:55:25.746Z,1.04
2022-11-16T00:56:25.944Z,1.04
2022-11-16T00:57:26.121Z,1.04
2022-11-16T00:58:26.248Z,1.04
2022-11-16T00:59:26.359Z,1.04
2022-11-16T01:00:27.072Z,1.04
2022-11-16T01:01:26.754Z,1.04
2022-11-16T01:02:26.824Z,1.04
2022-11-16T01:03:26.954Z,1.04
2022-11-16T01:04:27.063Z,1.04
2022-11-16T01:05:27.163Z,1.04
2022-11-16T01:06:27.313Z,1.04
2022-11-16T01:07:27.517Z,1.04
2022-11-16T01:08:27.617Z,1.04
2022-11-16T01:09:27.763Z,1.04
2022-11-16T01:10:27.927Z,1.04
2022-11-16T01:11:28.025Z,1.04
2022-11-16T01:12:28.175Z,1.04
2022-11-16T01:13:28.329Z,1.04
2022-11-16T01:14:28.474Z,1.04
2022-11-16T01:15:29.244Z,1.04
2022-11-16T01:16:28.772Z,1.04
2022-11-16T01:17:28.929Z,1.04
2022-11-16T01:18:29.024Z,1.04
2022-11-16T01:19:29.178Z,1.04
2022-11-16T01:20:29.358Z,1.04
2022-11-16T01:21:29.482Z,1.04
2022-11-16T01:22:29.644Z,1.04
2022-11-16T01:23:29.781Z,1.04
2022-11-16T01:24:29.886Z,1.04
2022-11-16T01:25:29.999Z,1.04
2022-11-16T01:26:30.155Z,1.04
2022-11-16T01:27:30.303Z,1.04
2022-11-16T01:28:30.694Z,1.04
2022-11-16T01:29:30.601Z,1.04
2022-11-16T01:30:31.352Z,1.04
2022-11-16T01:31:30.848Z,1.04
2022-11-16T01:32:30.975Z,1.04
2022-11-16T01:33:31.113Z,1.04
2022-11-16T01:34:31.258Z,1.04
2022-11-16T01:35:31.430Z,1.04
2022-11-16T01:36:31.592Z,1.04
2022-11-16T01:37:31.726Z,1.04
2022-11-16T01:38:32.230Z,1.04
2022-11-16T01:39:32.021Z,1.04
2022-11-16T01:40:32.114Z,1.04
2022-11-16T01:41:32.270Z,1.04
2022-11-16T01:42:32.395Z,1.04
2022-11-16T01:43:32.507Z,1.04
2022-11-16T01:44:33.181Z,1.04
2022-11-16T01:45:32.716Z,1.04
2022-11-16T01:46:32.829Z,1.04
2022-11-16T01:47:32.975Z,1.04
2022-11-16T01:48:33.494Z,1.04
2022-11-16T01:49:33.292Z,1.04
2022-11-16T01:50:33.463Z,1.04
2022-11-16T01:51:33.594Z,1.04
2022-11-16T01:52:33.738Z,1.04
2022-11-16T01:53:33.886Z,1.04
2022-11-16T01:54:34.044Z,1.04
2022-11-16T01:55:34.143Z,1.04
2022-11-16T01:56:34.295Z,1.04
2022-11-16T01:57:34.406Z,1.04
2022-11-16T01:58:34.883Z,1.04
2022-11-16T01:59:35.218Z,1.04
2022-11-16T02:00:34.835Z,1.04
2022-11-16T02:01:35.032Z,1.04
2022-11-16T02:02:35.036Z,1.04
2022-11-16T02:03:35.208Z,1.04
2022-11-16T02:04:35.360Z,1.04
2022-11-16T02:05:35.532Z,1.04
2022-11-16T02:06:35.664Z,1.04
2022-11-16T02:07:35.882Z,1.04
2022-11-16T02:08:36.147Z,1.04
2022-11-16T02:09:36.115Z,1.04
2022-11-16T02:10:36.270Z,1.04
2022-11-16T02:11:36.376Z,1.04
2022-11-16T02:12:36.522Z,1.04
2022-11-16T02:13:36.610Z,1.04
2022-11-16T02:14:37.291Z,1.04
2022-11-16T02:15:36.913Z,1.04
2022-11-16T02:16:37.072Z,1.04
2022-11-16T02:17:37.195Z,1.04
2022-11-16T02:18:37.322Z,1.04
2022-11-16T02:19:37.515Z,1.04
2022-11-16T02:20:37.582Z,1.04
2022-11-16T02:21:37.749Z,1.04
2022-11-16T02:22:37.883Z,1.04
2022-11-16T02:23:38.033Z,1.04
2022-11-16T02:24:38.206Z,1.04
2022-11-16T02:25:38.350Z,1.04
2022-11-16T02:26:38.503Z,1.04
2022-11-16T02:27:38.645Z,1.04
2022-11-16T02:28:38.759Z,1.04
2022-11-16T02:29:39.428Z,1.04
2022-11-16T02:30:39.042Z,1.04
2022-11-16T02:31:39.145Z,1.04
2022-11-16T02:32:39.240Z,1.04
2022-11-16T02:33:39.388Z,1.04
2022-11-16T02:34:39.492Z,1.04
2022-11-16T02:35:39.642Z,1.04
2022-11-16T02:36:39.742Z,1.04
2022-11-16T02:37:39.902Z,1.04
2022-11-16T02:38:40.057Z,1.04
2022-11-16T02:39:40.167Z,1.04
2022-11-16T02:40:40.299Z,1.04
2022-11-16T02:41:40.448Z,1.04
2022-11-16T02:42:40.548Z,1.04
2022-11-16T02:43:40.713Z,1.04
2022-11-16T02:44:41.441Z,1.04
2022-11-16T02:45:41.013Z,1.04
2022-11-16T02:46:41.117Z,1.04
2022-11-16T02:47:41.235Z,1.04
2022-11-16T02:48:41.378Z,1.04
2022-11-16T02:49:41.531Z,1.04
2022-11-16T02:50:41.691Z,1.04
2022-11-16T02:51:41.823Z,1.04
2022-11-16T02:52:41.976Z,1.04
2022-11-16T02:53:42.133Z,1.04
2022-11-16T02:54:42.289Z,1.04
2022-11-16T02:55:42.433Z,1.04
2022-11-16T02:56:42.581Z,1.04
2022-11-16T02:57:42.693Z,1.04
2022-11-16T02:58:42.848Z,1.04
2022-11-16T02:59:43.563Z,1.04
2022-11-16T03:00:43.142Z,1.04
2022-11-16T03:01:43.242Z,1.04
2022-11-16T03:02:43.399Z,1.04
2022-11-16T03:03:43.564Z,1.04
2022-11-16T03:04:43.708Z,1.04
2022-11-16T03:05:43.859Z,1.04
2022-11-16T03:06:43.999Z,1.04
2022-11-16T03:07:44.153Z,1.04
2022-11-16T03:08:44.274Z,1.04
2022-11-16T03:09:44.419Z,1.04
2022-11-16T03:10:44.568Z,1.04
2022-11-16T03:11:44.713Z,1.04
2022-11-16T03:12:44.866Z,1.04
2022-11-16T03:13:45.014Z,1.04
2022-11-16T03:14:45.690Z,1.04
2022-11-16T03:15:45.314Z,1.04
2022-11-16T03:16:45.460Z,1.04
2022-11-16T03:17:45.628Z,1.04
2022-11-16T03:18:45.782Z,1.04
2022-11-16T03:19:45.892Z,1.04
2022-11-16T03:20:46.028Z,1.04
2022-11-16T03:21:46.188Z,1.04
2022-11-16T03:22:46.323Z,1.04
2022-11-16T03:23:46.434Z,1.04
2022-11-16T03:24:46.587Z,1.04
2022-11-16T03:25:46.737Z,1.04
2022-11-16T03:26:46.879Z,1.04
2022-11-16T03:27:47.515Z,1.04
2022-11-16T03:28:47.134Z,1.04
2022-11-16T03:29:47.891Z,1.04
2022-11-16T03:30:47.434Z,1.04
2022-11-16T03:31:47.592Z,1.04
2022-11-16T03:32:47.749Z,1.04
2022-11-16T03:33:47.892Z,1.04
2022-11-16T03:34:48.045Z,1.04
2022-11-16T03:35:48.208Z,1.04
2022-11-16T03:36:48.358Z,1.04
2022-11-16T03:37:48.515Z,1.04
2022-11-16T03:38:48.597Z,1.04
2022-11-16T03:39:48.755Z,1.04
2022-11-16T03:40:48.908Z,1.04
2022-11-16T03:41:49.055Z,1.04
2022-11-16T03:42:49.221Z,1.04
2022-11-16T03:43:49.354Z,1.04
2022-11-16T03:44:50.046Z,1.04
2022-11-16T03:45:49.656Z,1.04
2022-11-16T03:46:49.828Z,1.04
2022-11-16T03:47:49.985Z,1.04
2022-11-16T03:48:50.114Z,1.04
2022-11-16T03:49:50.282Z,1.04
2022-11-16T03:50:50.429Z,1.04
2022-11-16T03:51:50.574Z,1.04
2022-11-16T03:52:50.737Z,1.04
2022-11-16T03:53:50.830Z,1.04
2022-11-16T03:54:50.989Z,1.04
2022-11-16T03:55:51.127Z,1.04
2022-11-16T03:56:51.285Z,1.04
2022-11-16T03:57:51.433Z,1.04
2022-11-16T03:58:51.538Z,1.04
2022-11-16T03:59:52.210Z,1.04
2022-11-16T04:00:51.935Z,1.04
2022-11-16T04:01:52.000Z,1.04
2022-11-16T04:02:52.151Z,1.04
2022-11-16T04:03:52.290Z,1.04
2022-11-16T04:04:52.454Z,1.04
2022-11-16T04:05:52.598Z,1.04
2022-11-16T04:06:52.819Z,1.04
2022-11-16T04:07:52.861Z,1.04
2022-11-16T04:08:53.004Z,1.04
2022-11-16T04:09:53.162Z,1.04
2022-11-16T04:10:53.313Z,1.04
2022-11-16T04:11:53.457Z,1.04
2022-11-16T04:12:53.612Z,1.04
2022-11-16T04:13:53.776Z,1.04
2022-11-16T04:14:54.414Z,1.04
2022-11-16T04:15:54.084Z,1.04
2022-11-16T04:16:54.220Z,1.04
2022-11-16T04:17:54.370Z,1.04
2022-11-16T04:18:54.524Z,1.04
2022-11-16T04:19:58.063Z,1.04
2022-11-16T04:20:54.837Z,1.04
2022-11-16T04:21:54.996Z,1.04
2022-11-16T04:22:55.115Z,1.04
2022-11-16T04:23:55.294Z,1.04
2022-11-16T04:24:55.425Z,1.04
2022-11-16T04:25:55.581Z,1.04
2022-11-16T04:26:55.732Z,1.04
2022-11-16T04:27:55.872Z,1.04
2022-11-16T04:28:56.042Z,1.04
2022-11-16T04:29:56.688Z,1.04
2022-11-16T04:30:56.327Z,1.04
2022-11-16T04:31:56.442Z,1.04
2022-11-16T04:32:56.579Z,1.04
2022-11-16T04:33:56.752Z,1.04
2022-11-16T04:34:56.892Z,1.04
2022-11-16T04:35:56.992Z,1.04
2022-11-16T04:36:57.147Z,1.04
2022-11-16T04:37:57.306Z,1.04
2022-11-16T04:38:57.471Z,1.04
2022-11-16T04:39:57.606Z,1.04
2022-11-16T04:40:57.705Z,1.04
2022-11-16T04:41:57.857Z,1.04
2022-11-16T04:42:57.956Z,1.04
2022-11-16T04:43:58.116Z,1.04
2022-11-16T04:44:58.739Z,1.04
2022-11-16T04:45:58.403Z,1.04
2022-11-16T04:46:58.570Z,1.04
2022-11-16T04:47:58.702Z,1.04
2022-11-16T04:48:59.051Z,1.04
2022-11-16T04:49:58.970Z,1.04
2022-11-16T04:50:59.124Z,1.04
2022-11-16T04:51:59.277Z,1.04
2022-11-16T04:52:59.422Z,1.04
2022-11-16T04:53:59.576Z,1.04
2022-11-16T04:54:59.729Z,1.04
2022-11-16T04:56:00.952Z,1.04
2022-11-16T04:57:00.043Z,1.04
2022-11-16T04:58:00.210Z,1.04
2022-11-16T04:59:00.336Z,1.04
2022-11-16T05:00:01.421Z,1.04
2022-11-16T05:01:00.708Z,1.04
2022-11-16T05:02:00.834Z,1.04
2022-11-16T05:03:01.881Z,1.04
2022-11-16T05:04:01.095Z,1.04
2022-11-16T05:05:01.244Z,1.04
2022-11-16T05:06:01.391Z,1.04
2022-11-16T05:07:01.622Z,1.04
2022-11-16T05:08:01.704Z,1.04
2022-11-16T05:09:01.857Z,1.04
2022-11-16T05:10:02.004Z,1.04
2022-11-16T05:11:02.159Z,1.04
2022-11-16T05:12:02.273Z,1.04
2022-11-16T05:13:02.424Z,1.04
2022-11-16T05:14:02.588Z,1.04
2022-11-16T05:15:03.192Z,1.04
2022-11-16T05:16:02.760Z,1.04
2022-11-16T05:17:02.929Z,1.04
2022-11-16T05:18:03.068Z,1.04
2022-11-16T05:19:03.225Z,1.04
2022-11-16T05:20:03.360Z,1.04
2022-11-16T05:21:03.521Z,1.04
2022-11-16T05:22:03.630Z,1.04
2022-11-16T05:23:03.759Z,1.04
2022-11-16T05:24:03.853Z,1.04
2022-11-16T05:25:04.033Z,1.04
2022-11-16T05:26:04.151Z,1.04
2022-11-16T05:27:04.307Z,1.04
2022-11-16T05:28:04.495Z,1.04
2022-11-16T05:29:04.584Z,1.04
2022-11-16T05:30:04.753Z,1.04
2022-11-16T05:31:04.867Z,1.04
2022-11-16T05:32:05.025Z,1.04
2022-11-16T05:33:05.157Z,1.04
2022-11-16T05:34:05.284Z,1.04
2022-11-16T05:35:05.443Z,1.04
2022-11-16T05:36:05.549Z,1.04
2022-11-16T05:37:05.710Z,1.04
2022-11-16T05:38:05.852Z,1.04
2022-11-16T05:39:06.044Z,1.04
2022-11-16T05:40:06.718Z,1.04
2022-11-16T05:41:06.252Z,1.04
2022-11-16T05:42:06.410Z,1.04
2022-11-16T05:43:06.563Z,2
2022-11-16T05:44:06.716Z,2
2022-11-16T05:45:07.490Z,2
2022-11-16T05:46:07.019Z,2
2022-11-16T05:47:07.171Z,2
2022-11-16T05:48:07.320Z,2
2022-11-16T05:49:07.473Z,3.04
2022-11-16T05:50:07.616Z,3.04
2022-11-16T05:51:07.767Z,4
2022-11-16T05:52:07.945Z,4
2022-11-16T05:53:08.144Z,5.04
2022-11-16T05:54:08.263Z,5.04
2022-11-16T05:55:08.380Z,6
2022-11-16T05:56:08.660Z,7.04
2022-11-16T05:57:08.653Z,9.04
2022-11-16T05:58:08.780Z,10
2022-11-16T05:59:12.449Z,12
2022-11-16T06:00:09.707Z,14
2022-11-16T06:01:09.230Z,16
2022-11-16T06:02:09.329Z,18
2022-11-16T06:03:09.631Z,21.04
2022-11-16T06:04:09.653Z,23.04
2022-11-16T06:10:10.868Z,27.04
2022-11-16T06:11:11.070Z,47.04
2022-11-16T06:12:10.653Z,50
2022-11-16T06:13:10.809Z,49.04
2022-11-16T06:14:10.961Z,58
2022-11-16T06:15:11.493Z,67.04
2022-11-16T06:16:11.570Z,95.04
2022-11-16T06:17:11.387Z,107.04
2022-11-16T06:18:11.493Z,123.04
2022-11-16T06:19:11.589Z,138
2022-11-16T06:20:11.692Z,157.04
2022-11-16T06:21:11.845Z,184
2022-11-16T06:22:12.030Z,213.12
2022-11-16T06:23:12.105Z,238.08
2022-11-16T06:24:12.253Z,267.04
2022-11-16T06:25:12.897Z,286.08
2022-11-16T06:26:12.585Z,282.08
2022-11-16T06:27:12.731Z,272
2022-11-16T06:28:12.869Z,279.04
2022-11-16T06:29:13.024Z,291.04
2022-11-16T06:30:13.657Z,301.12
2022-11-16T06:31:13.281Z,311.04
2022-11-16T06:32:13.378Z,317.12
2022-11-16T06:33:13.540Z,323.04
2022-11-16T06:34:13.677Z,334.08
2022-11-16T06:35:13.846Z,349.12
2022-11-16T06:36:13.998Z,375.04
2022-11-16T06:37:14.139Z,395.2
2022-11-16T06:38:14.305Z,424
2022-11-16T06:39:14.401Z,448
2022-11-16T06:40:14.549Z,474.24
2022-11-16T06:41:14.713Z,504
2022-11-16T06:42:14.856Z,531.2
2022-11-16T06:43:15.002Z,565.12
2022-11-16T06:44:15.148Z,590.08
2022-11-16T06:45:15.740Z,617.28
2022-11-16T06:46:15.399Z,653.12
2022-11-16T06:47:15.522Z,682.24
2022-11-16T06:48:15.606Z,722.56
2022-11-16T06:49:15.741Z,756.48
2022-11-16T06:50:15.919Z,793.6
2022-11-16T06:51:16.045Z,848
2022-11-16T06:52:16.220Z,893.44
2022-11-16T06:53:16.350Z,943.36
2022-11-16T06:54:16.495Z,1010.56
2022-11-16T06:55:16.618Z,1087.36
2022-11-16T06:56:16.801Z,1154.56
2022-11-16T06:57:16.931Z,1224.32
2022-11-16T06:58:17.081Z,1294.08
2022-11-16T06:59:17.232Z,1446.4
2022-11-16T07:00:18.202Z,1568
2022-11-16T07:01:17.610Z,1665.28
2022-11-16T07:02:17.632Z,1798.4
2022-11-16T07:03:17.782Z,1912.32
2022-11-16T07:04:17.888Z,2050.56
2022-11-16T07:05:17.989Z,2167.04
2022-11-16T07:06:18.138Z,2297.6
2022-11-16T07:07:18.367Z,2407.68
2022-11-16T07:08:18.447Z,2496
2022-11-16T07:09:18.605Z,2620.16
2022-11-16T07:10:18.749Z,2695.68
2022-11-16T07:11:18.894Z,2787.84
2022-11-16T07:12:19.050Z,2856.96
2022-11-16T07:13:19.224Z,2926.08
2022-11-16T07:14:19.374Z,2977.28
2022-11-16T07:15:20.043Z,3023.36
2022-11-16T07:16:19.644Z,3064.32
2022-11-16T07:17:19.812Z,3120.64
2022-11-16T07:18:19.962Z,3159.04
2022-11-16T07:19:20.059Z,3202.56
2022-11-16T07:20:20.205Z,3238.4
2022-11-16T07:21:20.361Z,3287.04
2022-11-16T07:22:20.510Z,3330.56
2022-11-16T07:23:20.672Z,3374.08
2022-11-16T07:24:20.817Z,3443.2
2022-11-16T07:25:20.964Z,3484.16
2022-11-16T07:26:21.077Z,3543.04
2022-11-16T07:27:21.227Z,3589.12
2022-11-16T07:28:21.384Z,3655.68
2022-11-16T07:29:21.547Z,3714.56
2022-11-16T07:30:22.244Z,3799.04
2022-11-16T07:31:21.821Z,3873.28
2022-11-16T07:32:21.985Z,3939.84
2022-11-16T07:33:22.127Z,4049.92
2022-11-16T07:34:22.306Z,4126.72
2022-11-16T07:35:22.439Z,4218.88
2022-11-16T07:36:22.582Z,4295.68
2022-11-16T07:37:22.696Z,4400.64
2022-11-16T07:38:22.843Z,4485.12
2022-11-16T07:39:22.996Z,4595.2
2022-11-16T07:40:23.085Z,4682.24
2022-11-16T07:41:23.244Z,4774.4
2022-11-16T07:42:23.402Z,4902.4
2022-11-16T07:43:23.548Z,4997.12
2022-11-16T07:44:23.697Z,5117.44
2022-11-16T07:45:24.481Z,5230.08
2022-11-16T07:46:46.881Z,5365.76
2022-11-16T07:47:24.113Z,5478.4
2022-11-16T07:48:24.283Z,5637.12
2022-11-16T07:49:24.411Z,5765.12
2022-11-16T07:50:24.558Z,5969.92
2022-11-16T07:51:24.706Z,6097.92
2022-11-16T07:52:24.862Z,6307.84
2022-11-16T07:53:25.029Z,6461.44
2022-11-16T07:54:25.171Z,6635.52
2022-11-16T07:55:25.274Z,6753.28
2022-11-16T07:56:25.419Z,6865.92
2022-11-16T07:57:25.523Z,7040
2022-11-16T07:58:25.671Z,7183.36
2022-11-16T07:59:25.819Z,7372.8
2022-11-16T08:00:26.697Z,7511.04
2022-11-16T08:01:26.171Z,7639.04
2022-11-16T08:02:26.233Z,7726.08
2022-11-16T08:03:26.391Z,7808
2022-11-16T08:04:26.539Z,7936
2022-11-16T08:05:26.732Z,8099.84
2022-11-16T08:06:27.522Z,8181.76
2022-11-16T08:07:26.992Z,8340.48
2022-11-16T08:08:27.097Z,8437.76
2022-11-16T08:09:27.265Z,8632.319
2022-11-16T08:10:27.443Z,8785.92
2022-11-16T08:11:27.540Z,8965.12
2022-11-16T08:12:27.698Z,9128.96
2022-11-16T08:13:27.856Z,9328.64
2022-11-16T08:14:27.951Z,9492.479
2022-11-16T08:15:28.050Z,9574.399
2022-11-16T08:16:28.184Z,9671.68
2022-11-16T08:17:28.295Z,9743.359
2022-11-16T08:18:28.436Z,9840.64
2022-11-16T08:19:28.542Z,9876.479
2022-11-16T08:20:28.852Z,9830.399
2022-11-16T08:21:28.854Z,9779.2
2022-11-16T08:22:29.006Z,9687.04
2022-11-16T08:23:29.159Z,9569.28
2022-11-16T08:24:29.309Z,9482.24
2022-11-16T08:25:29.462Z,9333.76
2022-11-16T08:26:29.622Z,9180.16
2022-11-16T08:27:29.759Z,9047.04
2022-11-16T08:28:29.917Z,8878.08
2022-11-16T08:29:30.083Z,8724.479
2022-11-16T08:30:30.790Z,8560.64
2022-11-16T08:31:30.368Z,8422.399
2022-11-16T08:32:30.537Z,8232.96
2022-11-16T08:33:30.630Z,8012.8
2022-11-16T08:34:30.785Z,7833.6
2022-11-16T08:35:30.887Z,7603.2
2022-11-16T08:36:31.056Z,7434.24
2022-11-16T08:37:31.196Z,7249.92
2022-11-16T08:38:31.389Z,7029.76
2022-11-16T08:39:31.446Z,6876.16
2022-11-16T08:40:31.597Z,6702.08
2022-11-16T08:41:31.736Z,6574.08
2022-11-16T08:42:31.893Z,6440.96
2022-11-16T08:43:32.047Z,6359.04
2022-11-16T08:44:32.779Z,6277.12
2022-11-16T08:45:32.299Z,6231.04
2022-11-16T08:46:32.453Z,6210.56
2022-11-16T08:47:32.600Z,6190.08
2022-11-16T08:48:33.087Z,6190.08
2022-11-16T08:49:32.906Z,6200.32
2022-11-16T08:50:39.812Z,6195.2
2022-11-16T08:51:33.198Z,6205.44
2022-11-16T08:52:33.352Z,6215.68
2022-11-16T08:53:33.520Z,6215.68
2022-11-16T08:54:33.615Z,6210.56
2022-11-16T08:55:33.773Z,6200.32
2022-11-16T08:56:33.910Z,6210.56
2022-11-16T08:57:34.061Z,6190.08
2022-11-16T08:58:34.562Z,6159.36
2022-11-16T08:59:34.800Z,6108.16
2022-11-16T09:00:34.410Z,6046.72
2022-11-16T09:01:34.611Z,5969.92
2022-11-16T09:02:34.712Z,5888
2022-11-16T09:03:34.871Z,5765.12
2022-11-16T09:04:37.152Z,5672.96
2022-11-16T09:05:35.181Z,5519.36
2022-11-16T09:06:35.276Z,5386.24
2022-11-16T09:07:35.521Z,5258.24
2022-11-16T09:08:35.850Z,5140.48
2022-11-16T09:09:35.736Z,5030.4
2022-11-16T09:10:35.871Z,4945.92
2022-11-16T09:11:35.979Z,4861.44
2022-11-16T09:12:36.140Z,4820.48
2022-11-16T09:13:36.317Z,4766.72
2022-11-16T09:14:36.961Z,4723.2
2022-11-16T09:15:36.582Z,4689.92
2022-11-16T09:16:36.748Z,4666.88
2022-11-16T09:17:36.893Z,4654.08
2022-11-16T09:18:37.237Z,4651.52
2022-11-16T09:19:37.200Z,4648.96
2022-11-16T09:20:37.353Z,4672
2022-11-16T09:21:37.496Z,4692.48
2022-11-16T09:22:37.653Z,4741.12
2022-11-16T09:23:37.810Z,4764.16
2022-11-16T09:24:37.957Z,4810.24
2022-11-16T09:25:38.117Z,4833.28
2022-11-16T09:26:38.256Z,4846.08
2022-11-16T09:27:38.377Z,4851.2
2022-11-16T09:28:38.523Z,4851.2
2022-11-16T09:29:39.199Z,4853.76
2022-11-16T09:30:38.768Z,4853.76
2022-11-16T09:31:38.931Z,4848.64
2022-11-16T09:32:39.069Z,4858.88
2022-11-16T09:33:39.237Z,4871.68
2022-11-16T09:34:39.372Z,4871.68
2022-11-16T09:35:39.516Z,4853.76
2022-11-16T09:36:39.671Z,4828.16
2022-11-16T09:37:39.830Z,4805.12
2022-11-16T09:39:40.976Z,4718.08
2022-11-16T09:40:40.237Z,4677.12
2022-11-16T09:41:40.379Z,4648.96
2022-11-16T09:42:40.551Z,4620.8
2022-11-16T09:43:45.427Z,4608
2022-11-16T09:44:41.641Z,4597.76
2022-11-16T09:45:40.985Z,4590.08
2022-11-16T09:46:41.093Z,4595.2
2022-11-16T09:47:41.209Z,4587.52
2022-11-16T09:48:41.362Z,4567.04
2022-11-16T09:49:41.492Z,4561.92
2022-11-16T09:50:41.647Z,4587.52
2022-11-16T09:51:41.752Z,4595.2
2022-11-16T09:52:41.908Z,4605.44
2022-11-16T09:53:42.057Z,4618.24
2022-11-16T09:54:42.200Z,4618.24
2022-11-16T09:55:42.361Z,4618.24
2022-11-16T09:56:42.526Z,4605.44
2022-11-16T09:57:42.658Z,4569.6
2022-11-16T09:58:42.819Z,4533.76
2022-11-16T09:59:43.647Z,4485.12
2022-11-16T10:00:43.214Z,4431.36
2022-11-16T10:01:43.172Z,4382.72
2022-11-16T10:02:43.321Z,4326.4
2022-11-16T10:03:43.445Z,4282.88
2022-11-16T10:04:43.576Z,4257.28
2022-11-16T10:05:43.734Z,4267.52
2022-11-16T10:06:43.874Z,4305.92
2022-11-16T10:07:43.979Z,4364.8
2022-11-16T10:08:44.141Z,4449.28
2022-11-16T10:09:44.272Z,4526.08
2022-11-16T10:10:44.433Z,4608
2022-11-16T10:11:44.590Z,4738.56
2022-11-16T10:12:44.730Z,4856.32
2022-11-16T10:13:44.886Z,4992
2022-11-16T10:14:45.559Z,5186.56
2022-11-16T10:15:45.111Z,5345.28
2022-11-16T10:16:45.185Z,5529.6
2022-11-16T10:17:45.390Z,5621.76
2022-11-16T10:18:45.491Z,5693.44
2022-11-16T10:19:45.601Z,5780.48
2022-11-16T10:20:45.748Z,5806.08
2022-11-16T10:21:45.900Z,5857.28
2022-11-16T10:22:46.079Z,5918.72
2022-11-16T10:23:46.222Z,5990.4
2022-11-16T10:24:46.356Z,6159.36
2022-11-16T10:25:46.527Z,6231.04
2022-11-16T10:26:46.608Z,6292.48
2022-11-16T10:27:46.762Z,6328.32
2022-11-16T10:28:46.920Z,6389.76
2022-11-16T10:29:47.649Z,6451.2
2022-11-16T10:30:47.208Z,6502.4
2022-11-16T10:31:47.332Z,6553.6
2022-11-16T10:32:47.470Z,6579.2
2022-11-16T10:33:47.637Z,6594.56
2022-11-16T10:34:47.802Z,6620.16
2022-11-16T10:35:47.956Z,6702.08
2022-11-16T10:36:48.089Z,6799.36
2022-11-16T10:37:48.236Z,6963.2
2022-11-16T10:38:48.420Z,7162.88
2022-11-16T10:39:48.538Z,7290.88
2022-11-16T10:40:48.686Z,7429.12
2022-11-16T10:41:48.821Z,7531.52
2022-11-16T10:42:48.935Z,7680
2022-11-16T10:43:49.084Z,7823.36
2022-11-16T10:44:49.812Z,7997.44
2022-11-16T10:45:49.378Z,8171.52
2022-11-16T10:46:49.540Z,8376.32
2022-11-16T10:47:49.706Z,8540.16
2022-11-16T10:48:49.846Z,8729.6
2022-11-16T10:49:50.000Z,8837.12
2022-11-16T10:50:50.141Z,8980.479
2022-11-16T10:51:50.340Z,9041.92
2022-11-16T10:52:50.440Z,9190.399
2022-11-16T10:53:50.592Z,9277.439
2022-11-16T10:54:50.769Z,9369.6
2022-11-16T10:55:50.912Z,9390.08
2022-11-16T10:56:51.067Z,9359.359
2022-11-16T10:57:51.213Z,9308.16
2022-11-16T10:58:51.356Z,9262.08
2022-11-16T10:59:52.080Z,9231.359
2022-11-16T11:00:51.799Z,9205.76
2022-11-16T11:01:51.764Z,9200.64
2022-11-16T11:02:51.938Z,9175.04
2022-11-16T11:03:52.074Z,9144.319
2022-11-16T11:04:52.208Z,9103.359
2022-11-16T11:05:52.372Z,9047.04
2022-11-16T11:06:52.668Z,8954.88
2022-11-16T11:07:56.883Z,8867.84
2022-11-16T11:08:52.778Z,8744.96
2022-11-16T11:09:52.934Z,8678.399
2022-11-16T11:10:53.073Z,8616.96
2022-11-16T11:11:53.260Z,8570.88
2022-11-16T11:12:53.389Z,8499.2
2022-11-16T11:13:53.483Z,8483.84
2022-11-16T11:14:54.065Z,8478.72
2022-11-16T11:15:53.733Z,8504.319
2022-11-16T11:16:53.876Z,8529.92
2022-11-16T11:17:53.990Z,8576
2022-11-16T11:18:54.174Z,8622.08
2022-11-16T11:19:54.300Z,8606.72
2022-11-16T11:20:54.446Z,8616.96
2022-11-16T11:21:54.586Z,8647.68
2022-11-16T11:22:54.751Z,8688.64
2022-11-16T11:23:54.927Z,8719.359
2022-11-16T11:24:55.060Z,8719.359
2022-11-16T11:25:55.212Z,8698.88
2022-11-16T11:26:55.351Z,8734.72
2022-11-16T11:27:55.458Z,8734.72
2022-11-16T11:28:55.648Z,8765.439
2022-11-16T11:29:56.296Z,8785.92
2022-11-16T11:30:55.920Z,8811.52
2022-11-16T11:31:56.060Z,8847.359
2022-11-16T11:32:56.217Z,8929.28
2022-11-16T11:33:56.365Z,9062.399
2022-11-16T11:34:56.515Z,9190.399
2022-11-16T11:35:56.684Z,9359.359
2022-11-16T11:36:56.785Z,9492.479
2022-11-16T11:37:56.862Z,9702.399
2022-11-16T11:38:57.079Z,9896.96
2022-11-16T11:39:57.116Z,10076.16
2022-11-16T11:40:57.284Z,10311.68
2022-11-16T11:41:57.430Z,10496
2022-11-16T11:42:57.537Z,10711.04
2022-11-16T11:43:57.676Z,10833.92
2022-11-16T11:44:58.455Z,10905.6
2022-11-16T11:45:57.956Z,10977.279
2022-11-16T11:47:42.721Z,10946.56
2022-11-16T11:47:59.512Z,10885.12
2022-11-16T11:48:58.379Z,10711.04
2022-11-16T11:49:58.538Z,10516.479
2022-11-16T11:50:58.688Z,10234.88
2022-11-16T11:51:58.835Z,9922.56
2022-11-16T11:52:58.946Z,9472
2022-11-16T11:53:59.055Z,9118.72
2022-11-16T11:54:59.211Z,8704
2022-11-16T11:55:59.365Z,8473.6
2022-11-16T11:56:59.491Z,8381.44
2022-11-16T11:57:59.650Z,8386.56
2022-11-16T11:58:59.747Z,8391.68
2022-11-16T12:00:00.507Z,8417.28
2022-11-16T12:01:00.067Z,8448
2022-11-16T12:02:00.206Z,8570.88
2022-11-16T12:03:00.404Z,8704
2022-11-16T12:04:00.544Z,8862.72
2022-11-16T12:05:00.674Z,8949.76
2022-11-16T12:06:00.816Z,8970.24
2022-11-16T12:07:01.030Z,8883.2
2022-11-16T12:08:01.112Z,8734.72
2022-11-16T12:09:01.277Z,8576
2022-11-16T12:10:01.378Z,8376.32
2022-11-16T12:11:01.491Z,8222.72
2022-11-16T12:12:01.632Z,8058.88
2022-11-16T12:13:01.775Z,7941.12
2022-11-16T12:14:01.886Z,7761.92
2022-11-16T12:15:02.833Z,7618.56
2022-11-16T12:16:02.209Z,7449.6
2022-11-16T12:17:02.383Z,7301.12
2022-11-16T12:18:02.380Z,7116.8
2022-11-16T12:19:02.575Z,6988.8
2022-11-16T12:20:02.691Z,6871.04
2022-11-16T12:21:02.836Z,6794.24
2022-11-16T12:22:02.942Z,6737.92
2022-11-16T12:23:04.291Z,6666.24
2022-11-16T12:24:03.194Z,6604.8
2022-11-16T12:25:03.352Z,6589.44
2022-11-16T12:26:03.498Z,6640.64
2022-11-16T12:27:03.666Z,6830.08
2022-11-16T12:28:03.837Z,7040
2022-11-16T12:29:03.958Z,7301.12
2022-11-16T12:30:04.671Z,7495.68
2022-11-16T12:31:04.240Z,7705.6
2022-11-16T12:32:04.367Z,7936
2022-11-16T12:33:04.506Z,8038.4
2022-11-16T12:34:04.657Z,8069.12
2022-11-16T12:35:04.815Z,7997.44
2022-11-16T12:36:04.957Z,7884.8
2022-11-16T12:37:05.127Z,7736.32
2022-11-16T12:38:05.273Z,7526.4
2022-11-16T12:39:05.378Z,7336.96
2022-11-16T12:40:05.583Z,7091.2
2022-11-16T12:41:05.671Z,6896.64
2022-11-16T12:42:05.845Z,6686.72
2022-11-16T12:43:05.982Z,6502.4
2022-11-16T12:44:06.114Z,6369.28
2022-11-16T12:45:06.800Z,6200.32
2022-11-16T12:46:06.421Z,6056.96
2022-11-16T12:47:06.578Z,5836.8
2022-11-16T12:48:06.683Z,5611.52
2022-11-16T12:49:06.773Z,5288.96
2022-11-16T12:50:06.964Z,5012.48
2022-11-16T12:51:07.103Z,4684.8
2022-11-16T12:52:07.239Z,4462.08